sensor_id;sensor_type;location;lat;lon;timestamp;P1;durP1;ratioP1;P2;durP2;ratioP2
9938;SDS011;5008;50.656;7.188;2023-11-19T00:01:00;0.77;;;0.77;;
9938;SDS011;5008;50.656;7.188;2023-11-19T00:03:30;0.80;;;0.77;;
9938;SDS011;5008;50.656;7.188;2023-11-19T00:05:58;0.97;;;0.87;;
9938;SDS011;5008;50.656;7.188;2023-11-19T00:08:25;0.67;;;0.67;;
9938;SDS011;5008;50.656;7.188;2023-11-19T00:10:53;1.23;;;1.00;;
9938;SDS011;5008;50.656;7.188;2023-11-19T00:13:20;0.80;;;0.80;;
9938;SDS011;5008;50.656;7.188;2023-11-19T00:15:48;1.07;;;0.93;;
9938;SDS011;5008;50.656;7.188;2023-11-19T00:18:15;0.50;;;0.50;;
9938;SDS011;5008;50.656;7.188;2023-11-19T00:20:41;1.10;;;0.60;;
9938;SDS011;5008;50.656;7.188;2023-11-19T00:23:09;0.53;;;0.43;;
9938;SDS011;5008;50.656;7.188;2023-11-19T00:25:36;1.00;;;0.57;;
9938;SDS011;5008;50.656;7.188;2023-11-19T00:28:05;2.70;;;0.80;;
9938;SDS011;5008;50.656;7.188;2023-11-19T00:30:32;1.00;;;1.00;;
9938;SDS011;5008;50.656;7.188;2023-11-19T00:32:58;0.80;;;0.80;;
9938;SDS011;5008;50.656;7.188;2023-11-19T00:35:25;1.10;;;1.00;;
9938;SDS011;5008;50.656;7.188;2023-11-19T00:37:52;1.30;;;1.20;;
9938;SDS011;5008;50.656;7.188;2023-11-19T00:40:19;1.43;;;1.33;;
9938;SDS011;5008;50.656;7.188;2023-11-19T00:42:48;1.33;;;1.20;;
9938;SDS011;5008;50.656;7.188;2023-11-19T00:45:16;0.90;;;0.90;;
9938;SDS011;5008;50.656;7.188;2023-11-19T00:47:43;0.90;;;0.90;;
9938;SDS011;5008;50.656;7.188;2023-11-19T00:50:10;1.27;;;1.17;;
9938;SDS011;5008;50.656;7.188;2023-11-19T00:52:38;0.73;;;0.60;;
9938;SDS011;5008;50.656;7.188;2023-11-19T00:55:05;0.73;;;0.73;;
9938;SDS011;5008;50.656;7.188;2023-11-19T00:57:32;1.23;;;1.13;;
9938;SDS011;5008;50.656;7.188;2023-11-19T01:00:00;0.97;;;0.97;;
9938;SDS011;5008;50.656;7.188;2023-11-19T01:02:29;1.30;;;0.63;;
9938;SDS011;5008;50.656;7.188;2023-11-19T01:04:56;0.50;;;0.50;;
9938;SDS011;5008;50.656;7.188;2023-11-19T01:07:22;0.40;;;0.40;;
9938;SDS011;5008;50.656;7.188;2023-11-19T01:09:51;1.00;;;0.50;;
9938;SDS011;5008;50.656;7.188;2023-11-19T01:12:19;0.90;;;0.90;;
9938;SDS011;5008;50.656;7.188;2023-11-19T01:14:45;0.90;;;0.67;;
9938;SDS011;5008;50.656;7.188;2023-11-19T01:17:12;5.50;;;4.93;;
9938;SDS011;5008;50.656;7.188;2023-11-19T01:19:40;3.03;;;2.03;;
9938;SDS011;5008;50.656;7.188;2023-11-19T01:22:07;0.70;;;0.70;;
9938;SDS011;5008;50.656;7.188;2023-11-19T01:24:34;0.50;;;0.50;;
9938;SDS011;5008;50.656;7.188;2023-11-19T01:27:00;0.90;;;0.50;;
9938;SDS011;5008;50.656;7.188;2023-11-19T01:29:27;0.80;;;0.80;;
9938;SDS011;5008;50.656;7.188;2023-11-19T01:31:54;1.07;;;0.80;;
9938;SDS011;5008;50.656;7.188;2023-11-19T01:34:21;0.80;;;0.70;;
9938;SDS011;5008;50.656;7.188;2023-11-19T01:36:49;0.87;;;0.87;;
9938;SDS011;5008;50.656;7.188;2023-11-19T01:39:16;1.20;;;0.90;;
9938;SDS011;5008;50.656;7.188;2023-11-19T01:41:42;1.20;;;0.90;;
9938;SDS011;5008;50.656;7.188;2023-11-19T01:44:09;1.10;;;0.93;;
9938;SDS011;5008;50.656;7.188;2023-11-19T01:46:38;0.80;;;0.80;;
9938;SDS011;5008;50.656;7.188;2023-11-19T01:49:06;1.33;;;1.00;;
9938;SDS011;5008;50.656;7.188;2023-11-19T01:51:35;1.20;;;0.70;;
9938;SDS011;5008;50.656;7.188;2023-11-19T01:54:03;0.87;;;0.87;;
9938;SDS011;5008;50.656;7.188;2023-11-19T01:56:30;1.00;;;0.90;;
9938;SDS011;5008;50.656;7.188;2023-11-19T01:58:58;0.90;;;0.90;;
9938;SDS011;5008;50.656;7.188;2023-11-19T02:01:26;0.87;;;0.87;;
9938;SDS011;5008;50.656;7.188;2023-11-19T02:03:54;1.50;;;1.20;;
9938;SDS011;5008;50.656;7.188;2023-11-19T02:06:23;1.03;;;1.00;;
9938;SDS011;5008;50.656;7.188;2023-11-19T02:08:51;0.97;;;0.97;;
9938;SDS011;5008;50.656;7.188;2023-11-19T02:11:20;1.30;;;1.20;;
9938;SDS011;5008;50.656;7.188;2023-11-19T02:13:46;1.40;;;1.30;;
9938;SDS011;5008;50.656;7.188;2023-11-19T02:16:13;1.80;;;1.60;;
9938;SDS011;5008;50.656;7.188;2023-11-19T02:18:40;1.93;;;1.47;;
9938;SDS011;5008;50.656;7.188;2023-11-19T02:21:08;1.77;;;1.40;;
9938;SDS011;5008;50.656;7.188;2023-11-19T02:23:35;2.57;;;1.60;;
9938;SDS011;5008;50.656;7.188;2023-11-19T02:26:03;1.77;;;1.40;;
9938;SDS011;5008;50.656;7.188;2023-11-19T02:28:38;1.50;;;1.40;;
9938;SDS011;5008;50.656;7.188;2023-11-19T02:31:05;1.60;;;1.50;;
9938;SDS011;5008;50.656;7.188;2023-11-19T02:33:34;1.47;;;1.37;;
9938;SDS011;5008;50.656;7.188;2023-11-19T02:36:01;1.70;;;1.40;;
9938;SDS011;5008;50.656;7.188;2023-11-19T02:38:28;2.00;;;1.57;;
9938;SDS011;5008;50.656;7.188;2023-11-19T02:40:55;2.03;;;1.23;;
9938;SDS011;5008;50.656;7.188;2023-11-19T02:43:22;1.40;;;1.30;;
9938;SDS011;5008;50.656;7.188;2023-11-19T02:45:50;1.60;;;0.90;;
9938;SDS011;5008;50.656;7.188;2023-11-19T02:48:20;0.90;;;0.90;;
9938;SDS011;5008;50.656;7.188;2023-11-19T02:50:47;4.43;;;1.47;;
9938;SDS011;5008;50.656;7.188;2023-11-19T02:53:14;1.00;;;1.00;;
9938;SDS011;5008;50.656;7.188;2023-11-19T02:55:42;1.20;;;1.10;;
9938;SDS011;5008;50.656;7.188;2023-11-19T02:58:13;1.40;;;1.30;;
9938;SDS011;5008;50.656;7.188;2023-11-19T03:00:48;1.73;;;1.17;;
9938;SDS011;5008;50.656;7.188;2023-11-19T03:03:22;1.20;;;1.10;;
9938;SDS011;5008;50.656;7.188;2023-11-19T03:05:53;1.10;;;1.00;;
9938;SDS011;5008;50.656;7.188;2023-11-19T03:08:20;1.20;;;1.10;;
9938;SDS011;5008;50.656;7.188;2023-11-19T03:10:47;1.40;;;1.07;;
9938;SDS011;5008;50.656;7.188;2023-11-19T03:13:14;1.17;;;1.07;;
9938;SDS011;5008;50.656;7.188;2023-11-19T03:15:42;1.33;;;0.77;;
9938;SDS011;5008;50.656;7.188;2023-11-19T03:18:10;0.93;;;0.90;;
9938;SDS011;5008;50.656;7.188;2023-11-19T03:20:37;0.97;;;0.87;;
9938;SDS011;5008;50.656;7.188;2023-11-19T03:23:04;1.43;;;0.70;;
9938;SDS011;5008;50.656;7.188;2023-11-19T03:25:31;0.70;;;0.63;;
9938;SDS011;5008;50.656;7.188;2023-11-19T03:27:59;1.20;;;0.80;;
9938;SDS011;5008;50.656;7.188;2023-11-19T03:30:26;0.73;;;0.73;;
9938;SDS011;5008;50.656;7.188;2023-11-19T03:32:54;0.60;;;0.60;;
9938;SDS011;5008;50.656;7.188;2023-11-19T03:35:23;0.63;;;0.63;;
9938;SDS011;5008;50.656;7.188;2023-11-19T03:37:50;0.73;;;0.67;;
9938;SDS011;5008;50.656;7.188;2023-11-19T03:40:17;0.60;;;0.60;;
9938;SDS011;5008;50.656;7.188;2023-11-19T03:42:45;1.93;;;0.50;;
9938;SDS011;5008;50.656;7.188;2023-11-19T03:45:12;0.40;;;0.40;;
9938;SDS011;5008;50.656;7.188;2023-11-19T03:47:39;0.50;;;0.50;;
9938;SDS011;5008;50.656;7.188;2023-11-19T03:50:07;2.07;;;0.83;;
9938;SDS011;5008;50.656;7.188;2023-11-19T03:52:35;1.60;;;0.50;;
9938;SDS011;5008;50.656;7.188;2023-11-19T03:55:03;1.37;;;0.50;;
9938;SDS011;5008;50.656;7.188;2023-11-19T03:57:30;1.30;;;0.80;;
9938;SDS011;5008;50.656;7.188;2023-11-19T03:59:57;0.83;;;0.70;;
9938;SDS011;5008;50.656;7.188;2023-11-19T04:02:24;0.70;;;0.70;;
9938;SDS011;5008;50.656;7.188;2023-11-19T04:04:52;0.60;;;0.60;;
9938;SDS011;5008;50.656;7.188;2023-11-19T04:07:20;0.70;;;0.70;;
9938;SDS011;5008;50.656;7.188;2023-11-19T04:09:48;0.53;;;0.53;;
9938;SDS011;5008;50.656;7.188;2023-11-19T04:12:15;0.60;;;0.60;;
9938;SDS011;5008;50.656;7.188;2023-11-19T04:14:43;0.80;;;0.80;;
9938;SDS011;5008;50.656;7.188;2023-11-19T04:17:10;0.80;;;0.80;;
9938;SDS011;5008;50.656;7.188;2023-11-19T04:19:36;2.50;;;1.00;;
9938;SDS011;5008;50.656;7.188;2023-11-19T04:22:06;1.50;;;1.00;;
9938;SDS011;5008;50.656;7.188;2023-11-19T04:24:33;0.90;;;0.90;;
9938;SDS011;5008;50.656;7.188;2023-11-19T04:27:01;1.50;;;0.93;;
9938;SDS011;5008;50.656;7.188;2023-11-19T04:29:29;1.33;;;0.80;;
9938;SDS011;5008;50.656;7.188;2023-11-19T04:31:56;1.20;;;1.10;;
9938;SDS011;5008;50.656;7.188;2023-11-19T04:34:23;2.57;;;0.97;;
9938;SDS011;5008;50.656;7.188;2023-11-19T04:36:51;1.67;;;1.10;;
9938;SDS011;5008;50.656;7.188;2023-11-19T04:39:17;0.90;;;0.90;;
9938;SDS011;5008;50.656;7.188;2023-11-19T04:41:48;1.33;;;1.13;;
9938;SDS011;5008;50.656;7.188;2023-11-19T04:44:18;0.80;;;0.80;;
9938;SDS011;5008;50.656;7.188;2023-11-19T04:46:45;0.83;;;0.83;;
9938;SDS011;5008;50.656;7.188;2023-11-19T04:49:12;1.13;;;1.00;;
9938;SDS011;5008;50.656;7.188;2023-11-19T04:51:39;1.20;;;1.10;;
9938;SDS011;5008;50.656;7.188;2023-11-19T04:54:07;1.70;;;1.00;;
9938;SDS011;5008;50.656;7.188;2023-11-19T04:56:34;0.90;;;0.90;;
9938;SDS011;5008;50.656;7.188;2023-11-19T04:59:02;1.13;;;0.80;;
9938;SDS011;5008;50.656;7.188;2023-11-19T05:01:32;1.70;;;1.07;;
9938;SDS011;5008;50.656;7.188;2023-11-19T05:03:59;1.03;;;1.00;;
9938;SDS011;5008;50.656;7.188;2023-11-19T05:06:26;0.93;;;0.93;;
9938;SDS011;5008;50.656;7.188;2023-11-19T05:08:54;0.87;;;0.83;;
9938;SDS011;5008;50.656;7.188;2023-11-19T05:11:21;1.70;;;0.80;;
9938;SDS011;5008;50.656;7.188;2023-11-19T05:13:48;1.53;;;1.00;;
9938;SDS011;5008;50.656;7.188;2023-11-19T05:16:15;2.23;;;1.07;;
9938;SDS011;5008;50.656;7.188;2023-11-19T05:18:44;2.17;;;1.00;;
9938;SDS011;5008;50.656;7.188;2023-11-19T05:21:10;2.37;;;1.30;;
9938;SDS011;5008;50.656;7.188;2023-11-19T05:23:37;1.67;;;1.50;;
9938;SDS011;5008;50.656;7.188;2023-11-19T05:26:05;4.73;;;2.87;;
9938;SDS011;5008;50.656;7.188;2023-11-19T05:28:32;3.07;;;2.33;;
9938;SDS011;5008;50.656;7.188;2023-11-19T05:30:59;5.33;;;3.50;;
9938;SDS011;5008;50.656;7.188;2023-11-19T05:33:26;11.57;;;10.47;;
9938;SDS011;5008;50.656;7.188;2023-11-19T05:35:54;11.30;;;10.07;;
9938;SDS011;5008;50.656;7.188;2023-11-19T05:38:22;6.37;;;5.77;;
9938;SDS011;5008;50.656;7.188;2023-11-19T05:40:49;11.17;;;9.90;;
9938;SDS011;5008;50.656;7.188;2023-11-19T05:43:15;23.10;;;21.07;;
9938;SDS011;5008;50.656;7.188;2023-11-19T05:45:42;23.60;;;21.60;;
9938;SDS011;5008;50.656;7.188;2023-11-19T05:48:09;23.90;;;21.70;;
9938;SDS011;5008;50.656;7.188;2023-11-19T05:50:36;26.07;;;23.63;;
9938;SDS011;5008;50.656;7.188;2023-11-19T05:53:04;21.67;;;19.50;;
9938;SDS011;5008;50.656;7.188;2023-11-19T05:55:35;19.30;;;17.47;;
9938;SDS011;5008;50.656;7.188;2023-11-19T05:58:02;19.20;;;17.57;;
9938;SDS011;5008;50.656;7.188;2023-11-19T06:00:31;14.53;;;12.73;;
9938;SDS011;5008;50.656;7.188;2023-11-19T06:02:58;15.90;;;14.50;;
9938;SDS011;5008;50.656;7.188;2023-11-19T06:05:25;18.73;;;17.03;;
9938;SDS011;5008;50.656;7.188;2023-11-19T06:07:52;13.17;;;11.97;;
9938;SDS011;5008;50.656;7.188;2023-11-19T06:10:20;11.37;;;10.37;;
9938;SDS011;5008;50.656;7.188;2023-11-19T06:15:21;6.17;;;4.17;;
9938;SDS011;5008;50.656;7.188;2023-11-19T06:17:48;8.57;;;7.03;;
9938;SDS011;5008;50.656;7.188;2023-11-19T06:20:15;8.57;;;7.77;;
9938;SDS011;5008;50.656;7.188;2023-11-19T06:22:42;18.67;;;17.00;;
9938;SDS011;5008;50.656;7.188;2023-11-19T06:25:11;33.20;;;30.37;;
9938;SDS011;5008;50.656;7.188;2023-11-19T06:27:41;41.37;;;37.77;;
9938;SDS011;5008;50.656;7.188;2023-11-19T06:30:08;44.43;;;40.50;;
9938;SDS011;5008;50.656;7.188;2023-11-19T06:32:35;38.73;;;35.73;;
9938;SDS011;5008;50.656;7.188;2023-11-19T06:35:03;28.57;;;26.07;;
9938;SDS011;5008;50.656;7.188;2023-11-19T06:37:30;19.53;;;17.73;;
9938;SDS011;5008;50.656;7.188;2023-11-19T06:39:57;8.50;;;4.80;;
9938;SDS011;5008;50.656;7.188;2023-11-19T06:42:24;7.20;;;4.90;;
9938;SDS011;5008;50.656;7.188;2023-11-19T06:44:52;6.37;;;5.50;;
9938;SDS011;5008;50.656;7.188;2023-11-19T06:50:16;5.10;;;4.33;;
9938;SDS011;5008;50.656;7.188;2023-11-19T06:52:44;7.73;;;3.90;;
9938;SDS011;5008;50.656;7.188;2023-11-19T06:55:11;8.37;;;3.40;;
9938;SDS011;5008;50.656;7.188;2023-11-19T06:57:43;6.40;;;3.40;;
9938;SDS011;5008;50.656;7.188;2023-11-19T07:00:12;8.80;;;4.80;;
9938;SDS011;5008;50.656;7.188;2023-11-19T07:02:39;6.93;;;6.00;;
9938;SDS011;5008;50.656;7.188;2023-11-19T07:05:07;8.47;;;4.37;;
9938;SDS011;5008;50.656;7.188;2023-11-19T07:07:34;6.70;;;3.10;;
9938;SDS011;5008;50.656;7.188;2023-11-19T07:10:01;8.53;;;2.70;;
9938;SDS011;5008;50.656;7.188;2023-11-19T07:12:29;10.20;;;5.37;;
9938;SDS011;5008;50.656;7.188;2023-11-19T07:14:56;8.20;;;2.87;;
9938;SDS011;5008;50.656;7.188;2023-11-19T07:17:24;4.57;;;3.80;;
9938;SDS011;5008;50.656;7.188;2023-11-19T07:19:52;9.60;;;4.70;;
9938;SDS011;5008;50.656;7.188;2023-11-19T07:22:19;8.07;;;4.60;;
9938;SDS011;5008;50.656;7.188;2023-11-19T07:24:46;5.23;;;2.30;;
9938;SDS011;5008;50.656;7.188;2023-11-19T07:27:13;11.33;;;5.53;;
9938;SDS011;5008;50.656;7.188;2023-11-19T07:29:40;9.27;;;5.17;;
9938;SDS011;5008;50.656;7.188;2023-11-19T07:32:09;12.97;;;8.87;;
9938;SDS011;5008;50.656;7.188;2023-11-19T07:34:37;18.27;;;12.13;;
9938;SDS011;5008;50.656;7.188;2023-11-19T07:37:04;14.93;;;11.77;;
9938;SDS011;5008;50.656;7.188;2023-11-19T07:39:32;17.77;;;12.57;;
9938;SDS011;5008;50.656;7.188;2023-11-19T07:42:00;17.73;;;15.83;;
9938;SDS011;5008;50.656;7.188;2023-11-19T07:44:27;17.67;;;13.57;;
9938;SDS011;5008;50.656;7.188;2023-11-19T07:46:54;16.30;;;11.80;;
9938;SDS011;5008;50.656;7.188;2023-11-19T07:49:20;10.30;;;9.30;;
9938;SDS011;5008;50.656;7.188;2023-11-19T07:51:49;10.53;;;7.70;;
9938;SDS011;5008;50.656;7.188;2023-11-19T07:54:15;11.97;;;9.03;;
9938;SDS011;5008;50.656;7.188;2023-11-19T07:56:42;11.23;;;10.13;;
9938;SDS011;5008;50.656;7.188;2023-11-19T07:59:09;16.70;;;13.83;;
9938;SDS011;5008;50.656;7.188;2023-11-19T08:01:36;18.77;;;15.43;;
9938;SDS011;5008;50.656;7.188;2023-11-19T08:04:03;12.10;;;9.83;;
9938;SDS011;5008;50.656;7.188;2023-11-19T08:06:30;10.37;;;8.23;;
9938;SDS011;5008;50.656;7.188;2023-11-19T08:08:58;9.10;;;4.83;;
9938;SDS011;5008;50.656;7.188;2023-11-19T08:11:25;8.87;;;3.90;;
9938;SDS011;5008;50.656;7.188;2023-11-19T08:13:52;6.63;;;3.40;;
9938;SDS011;5008;50.656;7.188;2023-11-19T08:16:19;7.20;;;2.87;;
9938;SDS011;5008;50.656;7.188;2023-11-19T08:18:46;8.33;;;2.30;;
9938;SDS011;5008;50.656;7.188;2023-11-19T08:21:13;7.77;;;2.33;;
9938;SDS011;5008;50.656;7.188;2023-11-19T08:23:40;8.90;;;2.80;;
9938;SDS011;5008;50.656;7.188;2023-11-19T08:26:08;8.27;;;2.60;;
9938;SDS011;5008;50.656;7.188;2023-11-19T08:28:35;8.93;;;2.27;;
9938;SDS011;5008;50.656;7.188;2023-11-19T08:31:01;7.77;;;2.43;;
9938;SDS011;5008;50.656;7.188;2023-11-19T08:33:29;10.20;;;2.77;;
9938;SDS011;5008;50.656;7.188;2023-11-19T08:35:56;7.77;;;2.80;;
9938;SDS011;5008;50.656;7.188;2023-11-19T08:38:23;5.67;;;2.33;;
9938;SDS011;5008;50.656;7.188;2023-11-19T08:40:50;7.90;;;2.47;;
9938;SDS011;5008;50.656;7.188;2023-11-19T08:43:18;8.53;;;2.87;;
9938;SDS011;5008;50.656;7.188;2023-11-19T08:45:46;10.80;;;2.60;;
9938;SDS011;5008;50.656;7.188;2023-11-19T08:48:13;10.80;;;2.57;;
9938;SDS011;5008;50.656;7.188;2023-11-19T08:50:39;11.30;;;2.67;;
9938;SDS011;5008;50.656;7.188;2023-11-19T08:53:06;9.17;;;2.70;;
9938;SDS011;5008;50.656;7.188;2023-11-19T08:55:33;7.47;;;2.33;;
9938;SDS011;5008;50.656;7.188;2023-11-19T08:58:00;8.70;;;2.63;;
9938;SDS011;5008;50.656;7.188;2023-11-19T09:00:28;10.00;;;2.50;;
9938;SDS011;5008;50.656;7.188;2023-11-19T09:02:57;7.97;;;2.50;;
9938;SDS011;5008;50.656;7.188;2023-11-19T09:05:24;10.67;;;2.50;;
9938;SDS011;5008;50.656;7.188;2023-11-19T09:07:51;5.87;;;2.03;;
9938;SDS011;5008;50.656;7.188;2023-11-19T09:10:17;8.10;;;2.63;;
9938;SDS011;5008;50.656;7.188;2023-11-19T09:12:44;9.67;;;2.93;;
9938;SDS011;5008;50.656;7.188;2023-11-19T09:15:11;13.80;;;2.67;;
9938;SDS011;5008;50.656;7.188;2023-11-19T09:17:39;6.53;;;2.63;;
9938;SDS011;5008;50.656;7.188;2023-11-19T09:20:07;8.93;;;2.83;;
9938;SDS011;5008;50.656;7.188;2023-11-19T09:22:37;10.23;;;2.60;;
9938;SDS011;5008;50.656;7.188;2023-11-19T09:25:04;12.77;;;2.47;;
9938;SDS011;5008;50.656;7.188;2023-11-19T09:27:31;8.63;;;2.97;;
9938;SDS011;5008;50.656;7.188;2023-11-19T09:29:58;11.13;;;3.07;;
9938;SDS011;5008;50.656;7.188;2023-11-19T09:32:26;11.23;;;2.70;;
9938;SDS011;5008;50.656;7.188;2023-11-19T09:34:54;9.40;;;2.43;;
9938;SDS011;5008;50.656;7.188;2023-11-19T09:37:21;7.27;;;2.57;;
9938;SDS011;5008;50.656;7.188;2023-11-19T09:39:48;7.83;;;2.50;;
9938;SDS011;5008;50.656;7.188;2023-11-19T09:42:14;8.60;;;2.87;;
9938;SDS011;5008;50.656;7.188;2023-11-19T09:44:43;8.63;;;2.10;;
9938;SDS011;5008;50.656;7.188;2023-11-19T09:47:11;6.93;;;2.23;;
9938;SDS011;5008;50.656;7.188;2023-11-19T09:49:39;7.77;;;2.60;;
9938;SDS011;5008;50.656;7.188;2023-11-19T09:52:08;6.60;;;2.23;;
9938;SDS011;5008;50.656;7.188;2023-11-19T09:54:35;9.43;;;2.57;;
9938;SDS011;5008;50.656;7.188;2023-11-19T09:57:02;8.10;;;2.20;;
9938;SDS011;5008;50.656;7.188;2023-11-19T09:59:32;5.47;;;1.80;;
9938;SDS011;5008;50.656;7.188;2023-11-19T10:01:59;10.37;;;2.90;;
9938;SDS011;5008;50.656;7.188;2023-11-19T10:04:27;10.67;;;2.40;;
9938;SDS011;5008;50.656;7.188;2023-11-19T10:06:56;8.30;;;2.60;;
9938;SDS011;5008;50.656;7.188;2023-11-19T10:09:25;9.27;;;2.57;;
9938;SDS011;5008;50.656;7.188;2023-11-19T10:11:51;6.83;;;2.47;;
9938;SDS011;5008;50.656;7.188;2023-11-19T10:14:19;8.83;;;2.80;;
9938;SDS011;5008;50.656;7.188;2023-11-19T10:16:50;6.67;;;2.50;;
9938;SDS011;5008;50.656;7.188;2023-11-19T10:19:18;12.37;;;2.57;;
9938;SDS011;5008;50.656;7.188;2023-11-19T10:21:46;5.53;;;2.13;;
9938;SDS011;5008;50.656;7.188;2023-11-19T10:24:13;9.17;;;2.77;;
9938;SDS011;5008;50.656;7.188;2023-11-19T10:26:41;13.77;;;2.93;;
9938;SDS011;5008;50.656;7.188;2023-11-19T10:29:08;8.67;;;2.80;;
9938;SDS011;5008;50.656;7.188;2023-11-19T10:31:38;12.50;;;2.97;;
9938;SDS011;5008;50.656;7.188;2023-11-19T10:34:08;9.00;;;2.90;;
9938;SDS011;5008;50.656;7.188;2023-11-19T10:36:51;10.90;;;2.80;;
9938;SDS011;5008;50.656;7.188;2023-11-19T10:39:18;7.97;;;2.90;;
9938;SDS011;5008;50.656;7.188;2023-11-19T10:41:47;9.07;;;3.13;;
9938;SDS011;5008;50.656;7.188;2023-11-19T10:44:28;11.70;;;2.80;;
9938;SDS011;5008;50.656;7.188;2023-11-19T10:47:01;8.53;;;2.50;;
9938;SDS011;5008;50.656;7.188;2023-11-19T10:49:28;7.83;;;2.57;;
9938;SDS011;5008;50.656;7.188;2023-11-19T10:51:54;9.33;;;2.63;;
9938;SDS011;5008;50.656;7.188;2023-11-19T10:54:23;8.03;;;2.43;;
9938;SDS011;5008;50.656;7.188;2023-11-19T10:56:54;9.30;;;2.80;;
9938;SDS011;5008;50.656;7.188;2023-11-19T10:59:24;10.70;;;2.40;;
9938;SDS011;5008;50.656;7.188;2023-11-19T11:01:54;7.50;;;2.93;;
9938;SDS011;5008;50.656;7.188;2023-11-19T11:04:23;7.60;;;2.60;;
9938;SDS011;5008;50.656;7.188;2023-11-19T11:06:51;7.60;;;2.60;;
9938;SDS011;5008;50.656;7.188;2023-11-19T11:09:20;6.27;;;2.27;;
9938;SDS011;5008;50.656;7.188;2023-11-19T11:11:48;6.20;;;2.57;;
9938;SDS011;5008;50.656;7.188;2023-11-19T11:14:19;6.33;;;2.40;;
9938;SDS011;5008;50.656;7.188;2023-11-19T11:16:47;7.17;;;2.60;;
9938;SDS011;5008;50.656;7.188;2023-11-19T11:19:15;9.80;;;2.57;;
9938;SDS011;5008;50.656;7.188;2023-11-19T11:21:44;9.57;;;2.67;;
9938;SDS011;5008;50.656;7.188;2023-11-19T11:27:31;5.83;;;2.33;;
9938;SDS011;5008;50.656;7.188;2023-11-19T11:30:24;5.93;;;2.40;;
9938;SDS011;5008;50.656;7.188;2023-11-19T11:33:11;7.73;;;2.60;;
9938;SDS011;5008;50.656;7.188;2023-11-19T11:35:53;8.53;;;2.30;;
9938;SDS011;5008;50.656;7.188;2023-11-19T11:38:28;6.33;;;2.03;;
9938;SDS011;5008;50.656;7.188;2023-11-19T11:43:44;10.53;;;2.40;;
9938;SDS011;5008;50.656;7.188;2023-11-19T11:49:28;6.53;;;1.90;;
9938;SDS011;5008;50.656;7.188;2023-11-19T11:51:59;5.97;;;2.03;;
9938;SDS011;5008;50.656;7.188;2023-11-19T11:54:26;6.50;;;2.60;;
9938;SDS011;5008;50.656;7.188;2023-11-19T11:57:02;6.77;;;2.30;;
9938;SDS011;5008;50.656;7.188;2023-11-19T11:59:37;8.47;;;2.50;;
9938;SDS011;5008;50.656;7.188;2023-11-19T12:02:09;12.87;;;2.47;;
9938;SDS011;5008;50.656;7.188;2023-11-19T12:04:38;9.23;;;2.23;;
9938;SDS011;5008;50.656;7.188;2023-11-19T12:07:05;4.40;;;2.00;;
9938;SDS011;5008;50.656;7.188;2023-11-19T12:09:36;8.37;;;2.60;;
9938;SDS011;5008;50.656;7.188;2023-11-19T12:12:17;12.50;;;2.70;;
9938;SDS011;5008;50.656;7.188;2023-11-19T12:15:02;5.40;;;2.00;;
9938;SDS011;5008;50.656;7.188;2023-11-19T12:17:37;6.73;;;2.50;;
9938;SDS011;5008;50.656;7.188;2023-11-19T12:20:17;10.17;;;2.43;;
9938;SDS011;5008;50.656;7.188;2023-11-19T12:22:45;7.27;;;2.23;;
9938;SDS011;5008;50.656;7.188;2023-11-19T12:25:14;6.37;;;2.37;;
9938;SDS011;5008;50.656;7.188;2023-11-19T12:27:43;6.87;;;2.10;;
9938;SDS011;5008;50.656;7.188;2023-11-19T12:30:11;9.63;;;2.90;;
9938;SDS011;5008;50.656;7.188;2023-11-19T12:32:39;5.73;;;1.70;;
9938;SDS011;5008;50.656;7.188;2023-11-19T12:35:07;5.93;;;2.00;;
9938;SDS011;5008;50.656;7.188;2023-11-19T12:37:41;5.03;;;2.17;;
9938;SDS011;5008;50.656;7.188;2023-11-19T12:40:12;5.77;;;1.80;;
9938;SDS011;5008;50.656;7.188;2023-11-19T12:42:40;5.23;;;2.00;;
9938;SDS011;5008;50.656;7.188;2023-11-19T12:45:08;4.13;;;2.10;;
9938;SDS011;5008;50.656;7.188;2023-11-19T12:47:36;7.30;;;2.00;;
9938;SDS011;5008;50.656;7.188;2023-11-19T12:50:03;8.00;;;2.30;;
9938;SDS011;5008;50.656;7.188;2023-11-19T12:52:31;4.83;;;2.37;;
9938;SDS011;5008;50.656;7.188;2023-11-19T12:55:00;10.30;;;2.20;;
9938;SDS011;5008;50.656;7.188;2023-11-19T12:57:36;5.87;;;2.20;;
9938;SDS011;5008;50.656;7.188;2023-11-19T13:00:07;5.70;;;2.17;;
9938;SDS011;5008;50.656;7.188;2023-11-19T13:02:46;5.43;;;1.83;;
9938;SDS011;5008;50.656;7.188;2023-11-19T13:05:21;5.73;;;2.13;;
9938;SDS011;5008;50.656;7.188;2023-11-19T13:07:57;6.17;;;2.03;;
9938;SDS011;5008;50.656;7.188;2023-11-19T13:10:26;7.27;;;2.40;;
9938;SDS011;5008;50.656;7.188;2023-11-19T13:13:03;6.57;;;2.40;;
9938;SDS011;5008;50.656;7.188;2023-11-19T13:15:31;6.13;;;2.03;;
9938;SDS011;5008;50.656;7.188;2023-11-19T13:17:58;8.77;;;2.50;;
9938;SDS011;5008;50.656;7.188;2023-11-19T13:20:25;5.47;;;2.30;;
9938;SDS011;5008;50.656;7.188;2023-11-19T13:22:56;4.80;;;2.07;;
9938;SDS011;5008;50.656;7.188;2023-11-19T13:25:23;6.63;;;2.30;;
9938;SDS011;5008;50.656;7.188;2023-11-19T13:27:51;9.57;;;2.40;;
9938;SDS011;5008;50.656;7.188;2023-11-19T13:30:19;7.03;;;2.07;;
9938;SDS011;5008;50.656;7.188;2023-11-19T13:32:47;7.43;;;2.70;;
9938;SDS011;5008;50.656;7.188;2023-11-19T13:35:14;9.50;;;2.50;;
9938;SDS011;5008;50.656;7.188;2023-11-19T13:37:42;5.90;;;3.07;;
9938;SDS011;5008;50.656;7.188;2023-11-19T13:40:09;5.70;;;2.43;;
9938;SDS011;5008;50.656;7.188;2023-11-19T13:42:39;6.07;;;2.80;;
9938;SDS011;5008;50.656;7.188;2023-11-19T13:45:09;6.40;;;2.40;;
9938;SDS011;5008;50.656;7.188;2023-11-19T13:47:39;9.33;;;2.63;;
9938;SDS011;5008;50.656;7.188;2023-11-19T13:50:08;6.37;;;2.47;;
9938;SDS011;5008;50.656;7.188;2023-11-19T13:52:35;6.70;;;2.37;;
9938;SDS011;5008;50.656;7.188;2023-11-19T13:55:05;8.17;;;2.40;;
9938;SDS011;5008;50.656;7.188;2023-11-19T13:57:33;5.50;;;2.70;;
9938;SDS011;5008;50.656;7.188;2023-11-19T14:00:00;9.47;;;2.93;;
9938;SDS011;5008;50.656;7.188;2023-11-19T14:02:29;5.33;;;2.57;;
9938;SDS011;5008;50.656;7.188;2023-11-19T14:04:56;7.43;;;3.03;;
9938;SDS011;5008;50.656;7.188;2023-11-19T14:07:23;11.67;;;6.90;;
9938;SDS011;5008;50.656;7.188;2023-11-19T14:09:49;7.27;;;3.33;;
9938;SDS011;5008;50.656;7.188;2023-11-19T14:12:16;11.23;;;3.13;;
9938;SDS011;5008;50.656;7.188;2023-11-19T14:14:43;8.60;;;2.73;;
9938;SDS011;5008;50.656;7.188;2023-11-19T14:17:10;4.50;;;2.00;;
9938;SDS011;5008;50.656;7.188;2023-11-19T14:19:39;5.23;;;2.27;;
9938;SDS011;5008;50.656;7.188;2023-11-19T14:22:06;6.63;;;2.00;;
9938;SDS011;5008;50.656;7.188;2023-11-19T14:24:33;7.87;;;2.73;;
9938;SDS011;5008;50.656;7.188;2023-11-19T14:27:00;6.40;;;1.90;;
9938;SDS011;5008;50.656;7.188;2023-11-19T14:29:27;8.27;;;3.00;;
9938;SDS011;5008;50.656;7.188;2023-11-19T14:31:54;4.73;;;2.10;;
9938;SDS011;5008;50.656;7.188;2023-11-19T14:34:21;6.03;;;2.00;;
9938;SDS011;5008;50.656;7.188;2023-11-19T14:36:51;8.30;;;2.17;;
9938;SDS011;5008;50.656;7.188;2023-11-19T14:39:18;5.17;;;2.10;;
9938;SDS011;5008;50.656;7.188;2023-11-19T14:41:45;5.37;;;2.03;;
9938;SDS011;5008;50.656;7.188;2023-11-19T14:44:12;5.23;;;1.70;;
9938;SDS011;5008;50.656;7.188;2023-11-19T14:46:39;7.43;;;2.57;;
9938;SDS011;5008;50.656;7.188;2023-11-19T14:49:06;5.57;;;1.93;;
9938;SDS011;5008;50.656;7.188;2023-11-19T14:51:35;6.10;;;1.93;;
9938;SDS011;5008;50.656;7.188;2023-11-19T14:54:03;5.57;;;2.23;;
9938;SDS011;5008;50.656;7.188;2023-11-19T14:56:30;5.03;;;1.83;;
9938;SDS011;5008;50.656;7.188;2023-11-19T14:58:57;6.67;;;2.07;;
9938;SDS011;5008;50.656;7.188;2023-11-19T15:01:24;7.77;;;2.37;;
9938;SDS011;5008;50.656;7.188;2023-11-19T15:03:53;5.23;;;1.80;;
9938;SDS011;5008;50.656;7.188;2023-11-19T15:06:22;5.67;;;1.60;;
9938;SDS011;5008;50.656;7.188;2023-11-19T15:08:50;5.23;;;2.10;;
9938;SDS011;5008;50.656;7.188;2023-11-19T15:11:18;2.97;;;1.33;;
9938;SDS011;5008;50.656;7.188;2023-11-19T15:13:45;3.60;;;1.60;;
9938;SDS011;5008;50.656;7.188;2023-11-19T15:16:11;5.40;;;2.10;;
9938;SDS011;5008;50.656;7.188;2023-11-19T15:18:39;5.53;;;1.70;;
9938;SDS011;5008;50.656;7.188;2023-11-19T15:21:06;8.00;;;2.20;;
9938;SDS011;5008;50.656;7.188;2023-11-19T15:23:34;5.60;;;1.80;;
9938;SDS011;5008;50.656;7.188;2023-11-19T15:26:02;5.57;;;1.90;;
9938;SDS011;5008;50.656;7.188;2023-11-19T15:28:30;6.93;;;2.63;;
9938;SDS011;5008;50.656;7.188;2023-11-19T15:30:57;7.30;;;2.10;;
9938;SDS011;5008;50.656;7.188;2023-11-19T15:33:24;5.97;;;1.90;;